Time;durP1;ratioP1;P1;durP2;ratioP2;P2;SDS_P1;SDS_P2;PMS_P1;PMS_P2;Temp;Humidity;BMP_temperature;BMP_pressure;BME280_temperature;BME280_humidity;BME280_pressure;Samples;Min_cycle;Max_cycle;Signal;HPM_P1;HPM_P2
2022/04/05 00:00:17;;;;;;;9.03;2.43;;;10.60;73.50;;;13.67;55.00;100000.84;5032349;28;20195;-57
2022/04/05 00:02:44;;;;;;;6.67;2.73;;;10.60;73.20;;;13.65;54.89;99997.59;5033611;28;20194;-56
2022/04/05 00:05:13;;;;;;;9.77;3.00;;;10.60;72.90;;;13.63;54.87;99994.34;5047312;28;20208;-56
2022/04/05 00:07:40;;;;;;;6.50;2.10;;;10.60;72.50;;;13.60;54.48;99997.44;5053446;28;20579;-58
2022/04/05 00:10:08;;;;;;;11.33;2.97;;;10.60;72.20;;;13.55;54.39;99993.59;5054030;28;20194;-57
2022/04/05 00:12:35;;;;;;;7.37;1.93;;;10.60;72.10;;;13.54;54.42;99997.25;5053643;28;20300;-57
2022/04/05 00:15:05;;;;;;;10.87;2.67;;;10.50;72.00;;;13.53;54.26;99995.63;5040901;28;20210;-57
2022/04/05 00:17:33;;;;;;;6.30;2.20;;;10.50;72.10;;;13.52;54.34;99996.66;5033100;28;20213;-59
2022/04/05 00:20:00;;;;;;;8.20;2.47;;;10.50;72.40;;;13.49;54.43;99994.44;5033337;28;20199;-56
2022/04/05 00:22:29;;;;;;;6.03;2.13;;;10.40;72.30;;;13.46;54.62;99999.31;5033067;28;20217;-58
2022/04/05 00:24:56;;;;;;;11.43;3.03;;;10.40;72.40;;;13.45;54.46;99995.06;5047824;28;20194;-56
2022/04/05 00:27:23;;;;;;;9.07;2.40;;;10.40;72.50;;;13.43;54.61;99992.63;5054302;28;20212;-58
2022/04/05 00:29:51;;;;;;;9.73;2.43;;;10.40;72.50;;;13.40;54.33;99990.44;5055159;28;20272;-55
2022/04/05 00:32:18;;;;;;;10.60;2.90;;;10.40;72.40;;;13.36;54.55;99989.22;5055247;28;20194;-57
2022/04/05 00:34:45;;;;;;;6.23;1.93;;;10.40;72.40;;;13.35;54.58;99995.53;5044288;28;20191;-57
2022/04/05 00:37:12;;;;;;;6.37;2.27;;;10.30;72.50;;;13.36;54.70;99993.72;5033723;28;20206;-56
2022/04/05 00:39:41;;;;;;;10.93;2.60;;;10.30;72.60;;;13.35;54.73;99986.78;5034472;28;20198;-57
2022/04/05 00:42:10;;;;;;;9.20;2.40;;;10.30;72.80;;;13.35;54.74;99992.88;5034082;28;20541;-58
2022/04/05 00:44:38;;;;;;;7.40;3.03;;;10.30;72.90;;;13.36;54.82;99993.72;5042933;28;20200;-58
2022/04/05 00:47:17;;;;;;;5.77;1.93;;;10.30;73.20;;;13.33;54.40;99999.41;5054003;28;20209;-58
2022/04/05 00:49:45;;;;;;;5.07;2.13;;;10.30;73.40;;;13.33;54.72;100002.03;5054310;28;20201;-57
2022/04/05 00:52:15;;;;;;;7.77;2.87;;;10.20;73.30;;;13.31;54.93;100002.25;5054273;28;20190;-56
2022/04/05 00:54:47;;;;;;;10.20;2.47;;;10.20;73.30;;;13.29;54.93;100009.56;5044606;28;20666;-57
2022/04/05 00:57:18;;;;;;;13.57;2.60;;;10.20;73.50;;;13.27;55.13;100011.63;5033683;28;20229;-58
2022/04/05 00:59:49;;;;;;;7.13;2.23;;;10.20;73.60;;;13.25;55.37;100013.66;5034042;28;20205;-57
2022/04/05 01:02:19;;;;;;;9.27;2.40;;;10.20;74.00;;;13.25;55.23;100003.09;5033955;28;20183;-58
2022/04/05 01:04:48;;;;;;;5.63;1.87;;;10.20;74.00;;;13.26;55.30;99994.16;5042222;28;20655;-58
2022/04/05 01:07:18;;;;;;;7.47;2.37;;;10.20;74.10;;;13.27;55.23;100000.22;5052750;28;20548;-58
2022/04/05 01:09:47;;;;;;;6.43;1.90;;;10.20;74.20;;;13.26;55.34;100010.00;5053468;28;20221;-56
2022/04/05 01:12:15;;;;;;;7.10;2.07;;;10.20;74.20;;;13.24;55.42;100009.38;5054087;28;20281;-55
2022/04/05 01:14:42;;;;;;;5.40;2.03;;;10.10;73.90;;;13.24;55.47;100016.53;5047822;28;20717;-58
2022/04/05 01:17:10;;;;;;;5.20;1.80;;;10.10;73.90;;;13.20;55.38;100005.56;5036184;28;20222;-55
2022/04/05 01:19:38;;;;;;;7.33;2.20;;;10.10;74.00;;;13.22;55.32;100016.72;5036489;28;20190;-56
2022/04/05 01:22:05;;;;;;;8.07;2.20;;;10.10;74.10;;;13.21;55.44;100022.22;5036210;28;20277;-58
2022/04/05 01:24:34;;;;;;;8.30;2.00;;;10.10;74.00;;;13.19;55.28;100013.69;5041801;28;20178;-56
2022/04/05 01:27:06;;;;;;;5.33;1.97;;;10.10;73.80;;;13.17;55.31;100010.47;5055902;28;20238;-55
2022/04/05 01:29:34;;;;;;;7.23;1.90;;;10.10;73.60;;;13.16;55.33;100022.84;5056817;28;20764;-56
2022/04/05 01:32:05;;;;;;;6.87;1.73;;;10.10;73.30;;;13.12;55.12;100018.19;5058702;28;20276;-57
2022/04/05 01:34:35;;;;;;;7.33;2.03;;;10.10;72.90;;;13.08;54.87;100022.25;5059136;28;20206;-56
2022/04/05 01:37:05;;;;;;;7.07;1.87;;;10.00;72.30;;;13.03;54.79;100020.22;5055799;28;20220;-57
2022/04/05 01:39:38;;;;;;;5.17;1.70;;;10.00;72.00;;;12.98;54.72;100027.16;5055915;28;20194;-58
2022/04/05 01:42:08;;;;;;;5.00;1.47;;;10.00;71.80;;;12.95;54.62;100028.38;5055927;28;20660;-57
2022/04/05 01:44:38;;;;;;;4.70;1.73;;;10.00;71.30;;;12.92;54.54;100028.78;5050023;28;20193;-58
2022/04/05 01:47:09;;;;;;;5.03;1.90;;;10.00;71.30;;;12.88;54.52;100033.66;5035498;28;20214;-58
2022/04/05 01:49:38;;;;;;;5.20;1.50;;;10.00;70.90;;;12.85;54.32;100038.56;5036274;28;20662;-60
2022/04/05 01:52:06;;;;;;;5.47;1.70;;;9.90;71.90;;;12.82;54.16;100038.94;5035948;28;20193;-58
2022/04/05 01:54:35;;;;;;;4.07;1.20;;;9.90;71.80;;;12.80;53.93;100033.06;5039357;28;20214;-56
2022/04/05 01:57:03;;;;;;;6.27;1.57;;;9.80;71.50;;;12.74;53.93;100026.78;5055080;28;20218;-58
2022/04/05 01:59:33;;;;;;;9.97;1.83;;;9.80;71.50;;;12.71;53.83;100031.66;5055481;28;20190;-56
2022/04/05 02:02:04;;;;;;;4.07;1.37;;;9.80;72.10;;;12.65;53.63;100035.94;5055387;28;20194;-56
2022/04/05 02:04:32;;;;;;;4.07;1.53;;;9.70;71.40;;;12.64;54.17;100044.06;5050340;28;20196;-58
2022/04/05 02:07:00;;;;;;;6.77;1.53;;;9.70;71.40;;;12.62;54.08;100041.63;5038560;28;20309;-58
2022/04/05 02:09:27;;;;;;;5.93;1.87;;;9.70;71.40;;;12.61;53.87;100047.94;5046404;28;20195;-58
2022/04/05 02:11:56;;;;;;;6.50;1.33;;;9.70;71.40;;;12.62;53.81;100059.31;5040186;28;20214;-57
2022/04/05 02:14:23;;;;;;;8.70;1.50;;;9.60;71.40;;;12.64;53.54;100052.00;5045218;28;20277;-56
2022/04/05 02:16:51;;;;;;;4.03;1.93;;;9.60;71.50;;;12.67;53.80;100062.16;5054063;28;20210;-58
2022/04/05 02:19:18;;;;;;;6.30;2.10;;;9.60;71.90;;;12.68;53.84;100058.47;5041103;28;20229;-58
2022/04/05 02:21:45;;;;;;;6.23;1.80;;;9.60;72.00;;;12.71;53.92;100063.34;5041511;28;20198;-58
2022/04/05 02:24:11;;;;;;;7.77;1.50;;;9.60;72.00;;;12.72;53.92;100075.53;5040760;28;20628;-57
2022/04/05 02:26:39;;;;;;;9.17;2.33;;;9.70;72.10;;;12.76;53.74;100079.41;5060388;28;20239;-57
2022/04/05 02:29:08;;;;;;;8.10;2.00;;;9.70;72.30;;;12.78;53.95;100080.81;5061600;28;20296;-58
2022/04/05 02:31:35;;;;;;;5.93;1.67;;;9.70;72.30;;;12.81;53.92;100082.25;5058502;28;20190;-58
2022/04/05 02:34:02;;;;;;;5.43;1.53;;;9.70;72.30;;;12.82;53.71;100075.94;5055964;28;20210;-57
2022/04/05 02:36:30;;;;;;;7.50;2.00;;;9.70;72.10;;;12.80;53.68;100078.78;5035334;28;20197;-57
2022/04/05 02:38:57;;;;;;;7.80;1.90;;;9.70;71.70;;;12.78;53.35;100082.63;5035104;28;20218;-57
2022/04/05 02:41:24;;;;;;;9.33;3.20;;;9.70;71.60;;;12.76;53.47;100080.22;5035317;28;20191;-55
2022/04/05 02:43:51;;;;;;;4.70;1.90;;;9.70;71.50;;;12.77;53.44;100078.38;5034854;28;20193;-58
2022/04/05 02:46:20;;;;;;;6.67;1.93;;;9.70;71.60;;;12.80;53.44;100083.25;5053052;28;20650;-55
2022/04/05 02:48:48;;;;;;;4.73;1.60;;;9.70;71.20;;;12.80;53.44;100086.72;5054394;28;20193;-58
2022/04/05 02:51:16;;;;;;;4.70;2.13;;;9.70;71.00;;;12.82;53.30;100091.78;5053315;28;20625;-59
2022/04/05 02:53:44;;;;;;;5.70;2.10;;;9.80;70.90;;;12.85;52.84;100096.66;5054088;28;20210;-58
2022/04/05 02:56:11;;;;;;;6.63;2.00;;;9.80;70.80;;;12.87;52.90;100086.69;5036534;28;20194;-58
2022/04/05 02:58:38;;;;;;;4.20;1.90;;;9.80;70.50;;;12.85;52.38;100097.47;5034159;28;20210;-58
2022/04/05 03:01:07;;;;;;;5.93;1.80;;;9.80;70.10;;;12.85;52.80;100097.47;5033264;28;20197;-57
2022/04/05 03:03:35;;;;;;;5.53;1.90;;;9.80;71.00;;;12.85;52.34;100101.94;5034321;28;20197;-57
2022/04/05 03:06:03;;;;;;;5.43;2.60;;;9.80;69.90;;;12.85;52.52;100117.78;5049565;28;20261;-58
2022/04/05 03:08:30;;;;;;;6.40;1.73;;;9.80;70.10;;;12.83;52.53;100114.53;5054018;28;20207;-55
2022/04/05 03:10:57;;;;;;;4.43;1.67;;;9.80;70.00;;;12.85;52.39;100104.56;5053988;28;20194;-55
2022/04/05 03:13:25;;;;;;;5.20;1.73;;;9.80;70.00;;;12.86;52.33;100111.47;5053783;28;20198;-57
2022/04/05 03:15:52;;;;;;;5.17;1.70;;;9.80;70.10;;;12.86;52.58;100103.53;5038708;28;20206;-57
2022/04/05 03:18:19;;;;;;;6.93;2.17;;;9.80;70.20;;;12.83;52.44;100104.78;5033714;28;20206;-58
2022/04/05 03:20:48;;;;;;;7.73;2.13;;;9.70;70.10;;;12.82;52.29;100112.91;5034050;28;20194;-56
2022/04/05 03:23:15;;;;;;;8.83;2.67;;;9.80;70.10;;;12.81;52.32;100109.44;5033844;28;20256;-57
2022/04/05 03:25:43;;;;;;;5.97;1.97;;;9.80;70.20;;;12.84;52.40;100113.50;5034776;28;20194;-57
2022/04/05 03:28:10;;;;;;;8.07;2.83;;;9.80;70.30;;;12.86;52.26;100120.19;5036668;28;20207;-55
2022/04/05 03:30:37;;;;;;;10.30;3.10;;;9.80;70.00;;;12.86;52.03;100124.66;5033641;28;20201;-56
2022/04/05 03:33:05;;;;;;;8.43;2.10;;;9.80;69.70;;;12.85;51.94;100123.06;5033426;28;20205;-55
2022/04/05 03:35:32;;;;;;;8.80;2.00;;;9.80;69.20;;;12.84;51.80;100116.97;5044810;28;20216;-55
2022/04/05 03:38:01;;;;;;;6.53;2.27;;;9.80;68.80;;;12.81;51.87;100122.66;5052983;28;20206;-58
2022/04/05 03:40:28;;;;;;;7.17;2.57;;;9.80;68.40;;;12.77;51.50;100121.44;5054278;28;20196;-58
2022/04/05 03:42:55;;;;;;;9.17;2.47;;;9.70;68.20;;;12.76;51.58;100133.03;5053636;28;20594;-57
2022/04/05 03:45:23;;;;;;;9.53;2.77;;;9.70;68.50;;;12.73;51.54;100129.97;5043614;28;20186;-58
2022/04/05 03:47:50;;;;;;;6.53;2.10;;;9.70;68.70;;;12.71;51.57;100132.00;5033070;28;20215;-57
2022/04/05 03:50:18;;;;;;;5.53;2.47;;;9.70;68.80;;;12.69;51.64;100140.13;5033665;28;20186;-58
2022/04/05 03:52:45;;;;;;;8.67;3.13;;;9.70;68.70;;;12.67;52.00;100133.44;5033419;28;20542;-57
2022/04/05 03:55:14;;;;;;;6.23;2.00;;;9.60;68.50;;;12.64;51.82;100136.47;5043692;28;20210;-57
2022/04/05 03:57:41;;;;;;;10.27;2.23;;;9.60;68.40;;;12.61;51.38;100139.50;5053629;28;20241;-58
2022/04/05 04:00:10;;;;;;;4.97;2.27;;;9.60;68.30;;;12.58;51.79;100147.81;5053365;28;20198;-56
2022/04/05 04:02:37;;;;;;;5.93;2.43;;;9.60;68.40;;;12.56;51.69;100141.94;5053271;28;20195;-55
2022/04/05 04:05:06;;;;;;;4.07;1.77;;;9.60;68.40;;;12.54;51.38;100136.06;5050325;28;20191;-57
2022/04/05 04:07:38;;;;;;;5.70;1.90;;;9.50;68.30;;;12.51;51.43;100147.00;5053123;28;20220;-57
2022/04/05 04:10:08;;;;;;;5.03;2.03;;;9.50;68.10;;;12.49;51.57;100146.41;5052558;28;20212;-57
2022/04/05 04:12:36;;;;;;;4.53;1.70;;;9.50;67.90;;;12.45;51.15;100143.38;5052940;28;20190;-56
2022/04/05 04:15:05;;;;;;;5.77;1.60;;;9.50;67.90;;;12.43;51.35;100150.66;5047692;28;20570;-57
2022/04/05 04:17:32;;;;;;;4.60;1.60;;;9.50;68.00;;;12.43;51.38;100149.84;5033480;28;20216;-57
2022/04/05 04:20:00;;;;;;;6.60;1.60;;;9.40;67.60;;;12.42;51.31;100154.31;5033143;28;20275;-58
2022/04/05 04:22:27;;;;;;;6.93;1.83;;;9.40;67.50;;;12.43;51.43;100152.50;5032882;28;20202;-57
2022/04/05 04:24:56;;;;;;;4.87;1.70;;;9.40;67.50;;;12.42;50.98;100158.78;5038036;28;20564;-58
2022/04/05 04:27:23;;;;;;;7.23;1.90;;;9.40;67.50;;;12.40;51.09;100161.63;5051896;28;20269;-57
2022/04/05 04:29:52;;;;;;;3.60;1.60;;;9.40;67.40;;;12.39;51.25;100149.44;5052703;28;20186;-57
2022/04/05 04:32:20;;;;;;;5.83;2.00;;;9.30;67.50;;;12.37;50.91;100162.03;5052569;28;20212;-58
2022/04/05 04:34:47;;;;;;;4.80;2.07;;;9.30;67.50;;;12.35;50.90;100163.22;5049417;28;20214;-56
2022/04/05 04:37:15;;;;;;;3.40;1.60;;;9.40;67.50;;;12.33;50.83;100170.53;5032683;28;20211;-57
2022/04/05 04:39:42;;;;;;;6.20;2.07;;;9.30;67.30;;;12.31;51.35;100167.28;5033020;28;20230;-58
2022/04/05 04:42:10;;;;;;;9.50;1.80;;;9.30;67.40;;;12.34;51.07;100169.53;5032840;28;20667;-59
2022/04/05 04:44:37;;;;;;;5.90;1.80;;;9.30;67.60;;;12.35;51.26;100155.31;5035156;28;20639;-58
2022/04/05 04:47:07;;;;;;;6.00;2.23;;;9.30;67.80;;;12.37;51.33;100153.28;5054083;28;20217;-56
2022/04/05 04:49:34;;;;;;;6.03;2.17;;;9.30;67.80;;;12.37;51.02;100153.28;5057242;28;20248;-58
2022/04/05 04:52:03;;;;;;;4.47;1.90;;;9.30;67.80;;;12.39;50.90;100160.00;5056513;28;20204;-56
2022/04/05 04:54:31;;;;;;;6.43;2.30;;;9.30;68.00;;;12.40;51.27;100160.81;5055212;28;20228;-58
2022/04/05 04:56:58;;;;;;;6.07;1.80;;;9.30;68.10;;;12.41;51.31;100168.50;5055888;28;20608;-56
2022/04/05 04:59:26;;;;;;;8.93;1.90;;;9.30;68.30;;;12.41;50.98;100170.38;5055578;28;20297;-57
2022/04/05 05:01:53;;;;;;;6.77;2.30;;;9.30;68.40;;;12.41;51.01;100184.34;5056591;28;20244;-58
2022/04/05 05:04:22;;;;;;;5.43;2.23;;;9.30;68.50;;;12.42;50.97;100179.88;5057020;28;20186;-57
2022/04/05 05:06:51;;;;;;;4.60;1.73;;;9.30;68.60;;;12.44;51.70;100181.31;5056100;28;20305;-57
2022/04/05 05:09:23;;;;;;;8.70;2.47;;;9.30;69.30;;;12.47;51.98;100182.75;5056851;28;20226;-58
2022/04/05 05:11:50;;;;;;;6.33;2.13;;;9.30;69.70;;;12.54;51.81;100178.28;5058792;28;20201;-57
2022/04/05 05:14:17;;;;;;;7.87;2.20;;;9.40;69.70;;;12.58;51.79;100190.06;5057360;28;20300;-55
2022/04/05 05:16:45;;;;;;;8.27;2.13;;;9.40;69.60;;;12.61;51.38;100184.38;5040302;28;20214;-55
2022/04/05 05:19:12;;;;;;;7.30;2.20;;;9.40;69.30;;;12.61;51.61;100184.38;5035855;28;20580;-54
2022/04/05 05:21:41;;;;;;;6.00;1.90;;;9.50;68.90;;;12.61;51.34;100190.50;5036962;28;20282;-56
2022/04/05 05:24:09;;;;;;;7.70;2.17;;;9.50;68.80;;;12.60;51.49;100193.34;5038122;28;20211;-58
2022/04/05 05:26:37;;;;;;;8.17;2.20;;;9.50;68.70;;;12.59;51.35;100203.09;5054445;28;20186;-56
2022/04/05 05:29:04;;;;;;;7.17;2.40;;;9.50;68.60;;;12.61;51.23;100210.78;5056126;28;20201;-57
2022/04/05 05:31:34;;;;;;;9.33;2.60;;;9.50;68.60;;;12.62;51.23;100207.16;5055910;28;20677;-59
2022/04/05 05:34:02;;;;;;;9.43;2.73;;;9.50;68.70;;;12.65;51.51;100204.91;5055886;28;20302;-57
2022/04/05 05:36:29;;;;;;;8.93;2.87;;;9.50;68.80;;;12.69;51.32;100202.69;5038685;28;20230;-56
2022/04/05 05:38:58;;;;;;;12.47;3.00;;;9.50;68.90;;;12.72;51.39;100212.81;5035659;28;20191;-56
2022/04/05 05:41:26;;;;;;;10.93;5.50;;;9.50;68.80;;;12.74;51.13;100216.09;5035652;28;20190;-58
2022/04/05 05:43:53;;;;;;;8.73;2.40;;;9.50;68.90;;;12.74;51.09;100208.19;5035732;28;20273;-58
2022/04/05 05:46:21;;;;;;;6.43;2.30;;;9.60;69.00;;;12.75;51.52;100223.00;5049877;28;20208;-57
2022/04/05 05:48:49;;;;;;;6.77;2.47;;;9.60;69.10;;;12.72;51.19;100232.13;5055257;28;20677;-56
2022/04/05 05:51:16;;;;;;;10.77;2.53;;;9.60;69.10;;;12.73;51.30;100227.66;5055779;28;20197;-58
2022/04/05 05:53:43;;;;;;;4.67;2.03;;;9.60;69.20;;;12.75;51.61;100236.19;5055527;28;20197;-56
2022/04/05 05:56:13;;;;;;;14.03;2.87;;;9.60;69.30;;;12.79;51.58;100234.78;5041885;28;20218;-57
2022/04/05 05:58:41;;;;;;;7.43;2.20;;;9.60;69.50;;;12.81;51.31;100232.78;5034445;28;20260;-57
2022/04/05 06:01:09;;;;;;;10.07;2.53;;;9.60;69.50;;;12.82;51.44;100237.03;5035483;28;20198;-57
2022/04/05 06:03:36;;;;;;;10.33;2.20;;;9.60;69.40;;;12.82;51.54;100239.66;5036324;28;20250;-56
2022/04/05 06:06:03;;;;;;;8.87;2.57;;;9.70;69.50;;;12.85;51.61;100245.38;5046748;28;20197;-59
2022/04/05 06:08:31;;;;;;;10.20;2.37;;;9.70;69.70;;;12.92;51.58;100245.38;5055327;28;20297;-58
2022/04/05 06:10:58;;;;;;;8.80;2.20;;;9.70;69.80;;;12.98;51.77;100244.56;5054135;28;20206;-55
2022/04/05 06:13:27;;;;;;;6.90;2.13;;;9.80;70.00;;;13.05;51.69;100255.94;5054935;28;20190;-56
2022/04/05 06:15:54;;;;;;;7.13;2.40;;;9.90;69.80;;;13.09;51.92;100246.63;5043832;28;20211;-58
2022/04/05 06:18:21;;;;;;;11.07;2.33;;;9.90;69.80;;;13.16;51.68;100252.75;5048409;28;20296;-58
2022/04/05 06:20:49;;;;;;;7.20;2.23;;;9.90;69.50;;;13.19;51.52;100260.25;5055054;28;20194;-56
2022/04/05 06:23:16;;;;;;;4.57;2.00;;;10.00;68.10;;;13.22;51.36;100257.19;5055571;28;20273;-58
2022/04/05 06:25:44;;;;;;;7.77;2.40;;;10.00;68.00;;;13.29;51.36;100252.72;5046244;28;20277;-56
2022/04/05 06:28:12;;;;;;;7.47;2.27;;;10.10;68.10;;;13.34;51.22;100255.56;5034489;28;20275;-58
2022/04/05 06:30:41;;;;;;;7.13;2.53;;;10.10;67.90;;;13.40;51.11;100259.25;5033283;28;20210;-59
2022/04/05 06:33:10;;;;;;;8.33;2.60;;;10.10;67.70;;;13.48;50.90;100266.94;5034525;28;20197;-57
2022/04/05 06:35:40;;;;;;;9.77;2.67;;;10.20;67.80;;;13.54;50.81;100266.13;5040950;28;20301;-57
2022/04/05 06:38:08;;;;;;;7.43;2.43;;;10.30;67.60;;;13.63;50.87;100269.38;5054383;28;20210;-58
2022/04/05 06:40:36;;;;;;;7.30;2.60;;;10.30;67.60;;;13.72;50.55;100268.13;5054712;28;20254;-58
2022/04/05 06:43:04;;;;;;;10.47;2.73;;;10.40;67.20;;;13.77;50.41;100268.31;5054964;28;20201;-58
2022/04/05 06:45:32;;;;;;;13.27;3.00;;;10.40;67.10;;;13.80;50.17;100273.22;5047625;28;20194;-57
2022/04/05 06:48:01;;;;;;;7.90;2.50;;;10.50;66.80;;;13.79;50.15;100271.56;5034304;28;20513;-59
2022/04/05 06:50:28;;;;;;;14.67;2.70;;;10.50;66.30;;;13.80;50.04;100270.56;5034332;28;20191;-56
2022/04/05 06:52:58;;;;;;;9.10;2.70;;;10.60;66.50;;;13.83;50.14;100270.16;5034170;28;20187;-57
2022/04/05 06:55:26;;;;;;;9.57;2.47;;;10.60;66.20;;;13.86;49.88;100265.25;5040050;28;20209;-57
2022/04/05 06:57:54;;;;;;;6.77;2.33;;;10.60;66.00;;;13.93;49.87;100281.13;5053043;28;20605;-57
2022/04/05 07:00:23;;;;;;;9.43;2.90;;;10.60;66.20;;;13.99;49.60;100270.53;5054933;28;20200;-57
2022/04/05 07:02:51;;;;;;;8.33;2.50;;;10.70;66.90;;;14.07;49.64;100288.00;5055764;28;20185;-55
2022/04/05 07:05:21;;;;;;;8.73;3.00;;;10.70;66.10;;;14.14;49.66;100280.88;5056300;28;20285;-57
2022/04/05 07:07:48;;;;;;;10.97;3.07;;;10.80;66.40;;;14.25;49.67;100285.50;5054531;28;20309;-57
2022/04/05 07:10:18;;;;;;;6.87;2.23;;;10.90;66.40;;;14.36;49.24;100276.91;5054161;28;20213;-57
2022/04/05 07:12:47;;;;;;;11.30;2.77;;;11.00;65.50;;;14.41;49.09;100277.09;5054802;28;20190;-58
2022/04/05 07:15:15;;;;;;;9.93;2.53;;;11.00;65.50;;;14.47;48.99;100284.22;5053436;28;20212;-59
2022/04/05 07:17:44;;;;;;;10.63;2.60;;;11.10;65.10;;;14.46;48.37;100287.88;5054082;28;20765;-56
2022/04/05 07:20:37;;;;;;;11.77;2.50;;;11.20;64.50;;;14.43;48.50;100277.72;5053370;28;20247;-57
2022/04/05 07:23:05;;;;;;;7.20;2.80;;;11.20;64.10;;;14.43;48.38;100282.22;5052857;28;20217;-57
2022/04/05 07:25:34;;;;;;;9.17;2.20;;;11.20;63.60;;;14.43;48.22;100282.22;5035991;28;20240;-57
2022/04/05 07:28:02;;;;;;;6.80;2.50;;;11.20;63.20;;;14.44;47.92;100278.53;5053736;28;20579;-56
2022/04/05 07:30:30;;;;;;;6.73;2.30;;;11.10;63.00;;;14.46;47.88;100277.28;5054062;28;20212;-55
2022/04/05 07:32:57;;;;;;;9.90;2.33;;;11.10;63.10;;;14.49;47.95;100287.47;5053842;28;20591;-57
2022/04/05 07:35:24;;;;;;;8.13;2.40;;;11.20;63.20;;;14.51;47.71;100280.13;5052793;28;20779;-57
2022/04/05 07:37:54;;;;;;;10.60;3.03;;;11.20;63.00;;;14.55;47.69;100283.16;5053599;28;20288;-58
2022/04/05 07:40:21;;;;;;;6.27;2.53;;;11.20;63.10;;;14.60;47.64;100278.03;5053684;28;20296;-56
2022/04/05 07:42:49;;;;;;;8.77;2.60;;;11.30;63.30;;;14.68;47.67;100283.09;5053851;28;20210;-57
2022/04/05 07:45:16;;;;;;;12.03;3.00;;;11.30;63.30;;;14.75;47.27;100273.28;5050045;28;20519;-57
2022/04/05 07:47:45;;;;;;;7.23;2.23;;;11.30;62.60;;;14.80;47.27;100276.09;5033201;28;20198;-56
2022/04/05 07:50:13;;;;;;;7.77;2.73;;;11.40;62.80;;;14.87;47.14;100268.91;5033580;28;20316;-57
2022/04/05 07:52:44;;;;;;;6.93;2.43;;;11.40;62.60;;;14.96;47.01;100267.63;5033610;28;20187;-58
2022/04/05 07:55:13;;;;;;;12.00;2.73;;;11.50;62.50;;;15.09;46.82;100256.13;5038272;28;20234;-57
2022/04/05 07:57:40;;;;;;;9.10;2.33;;;11.60;62.40;;;15.23;46.70;100268.25;5046070;28;20271;-58
2022/04/05 08:00:10;;;;;;;6.07;1.97;;;11.70;62.40;;;15.37;46.25;100264.47;5048315;28;20292;-58
2022/04/05 08:02:38;;;;;;;7.13;2.47;;;11.80;62.20;;;15.51;46.22;100269.47;5035570;28;20194;-64
2022/04/05 08:05:14;;;;;;;7.50;1.97;;;11.90;62.00;;;15.65;46.14;100262.19;5044183;28;20252;-58
2022/04/05 08:07:43;;;;;;;7.07;2.07;;;12.10;61.60;;;15.71;45.40;100271.94;5045196;28;20218;-58
2022/04/05 08:10:10;;;;;;;9.27;2.47;;;12.10;60.40;;;15.76;45.17;100263.31;5053425;28;20209;-57
2022/04/05 08:12:43;;;;;;;7.30;2.30;;;12.20;59.70;;;15.80;44.82;100265.31;5042867;28;20286;-58
2022/04/05 08:15:13;;;;;;;11.47;2.60;;;12.30;59.70;;;16.00;44.67;100262.41;5037294;28;20309;-57
2022/04/05 08:17:41;;;;;;;8.80;1.93;;;12.40;59.00;;;16.40;43.83;100260.13;5040284;28;20209;-59
2022/04/05 08:20:10;;;;;;;9.40;2.97;;;12.50;59.00;;;16.85;43.46;100267.47;5043511;28;20194;-59
2022/04/05 08:22:38;;;;;;;9.03;2.40;;;12.80;58.90;;;17.22;42.82;100254.84;5040638;28;20237;-58
2022/04/05 08:25:08;;;;;;;9.10;3.33;;;13.10;58.70;;;17.36;41.54;100261.56;5037746;28;20216;-59
2022/04/05 08:27:36;;;;;;;9.37;3.10;;;13.40;57.20;;;17.34;40.88;100278.81;5038046;28;20233;-58
2022/04/05 08:30:09;;;;;;;6.07;2.10;;;13.50;55.60;;;17.28;41.07;100269.88;5054841;28;20259;-56
2022/04/05 08:32:42;;;;;;;9.80;2.87;;;13.60;55.20;;;17.31;40.89;100272.09;5044735;28;20289;-58
2022/04/05 08:35:14;;;;;;;7.97;1.93;;;13.60;55.20;;;17.33;41.09;100262.03;5045513;28;20217;-60
2022/04/05 08:37:43;;;;;;;7.07;2.60;;;13.70;55.20;;;17.34;40.81;100268.97;5046949;28;20280;-58
2022/04/05 08:40:12;;;;;;;12.47;2.90;;;13.80;55.00;;;17.34;40.47;100268.97;5054550;28;20716;-57
2022/04/05 08:42:42;;;;;;;4.83;2.00;;;13.80;54.00;;;17.34;40.83;100270.81;5041631;28;20559;-59
2022/04/05 08:45:13;;;;;;;4.47;1.93;;;13.80;54.50;;;17.35;40.38;100275.91;5053335;28;20663;-56
2022/04/05 08:47:46;;;;;;;6.37;2.10;;;13.80;54.00;;;17.35;40.29;100273.25;5050191;28;20206;-59
2022/04/05 08:50:16;;;;;;;9.30;1.93;;;13.80;53.70;;;17.33;40.40;100275.31;5050945;28;20231;-60
2022/04/05 08:52:45;;;;;;;5.30;1.93;;;13.80;53.60;;;17.25;40.05;100275.69;5053068;28;20193;-59
2022/04/05 08:55:14;;;;;;;8.03;2.37;;;13.80;53.40;;;17.12;40.03;100281.19;5051122;28;20682;-56
2022/04/05 08:57:42;;;;;;;9.43;4.17;;;13.70;53.20;;;17.07;40.40;100278.41;5043560;28;20210;-60
2022/04/05 09:00:15;;;;;;;7.23;3.30;;;13.70;53.70;;;17.06;40.74;100295.41;5045108;28;20254;-59
2022/04/05 09:02:57;;;;;;;13.73;2.43;;;13.70;54.10;;;17.02;40.55;100288.13;5041254;28;20277;-58
2022/04/05 09:05:32;;;;;;;6.20;2.53;;;13.70;54.30;;;16.99;40.70;100285.91;5045919;28;20587;-58
2022/04/05 09:08:17;;;;;;;6.13;3.93;;;13.60;54.20;;;16.97;40.87;100283.47;5046300;28;20228;-59
2022/04/05 09:10:48;;;;;;;5.83;2.43;;;13.60;54.30;;;17.00;40.81;100276.91;5044955;28;20203;-60
2022/04/05 09:13:21;;;;;;;8.03;2.10;;;13.60;54.50;;;16.89;40.74;100275.81;5037872;28;20222;-58
2022/04/05 09:15:56;;;;;;;7.97;2.37;;;13.50;54.30;;;16.78;41.48;100273.94;5050676;28;20690;-59
2022/04/05 09:18:30;;;;;;;6.10;2.30;;;13.50;54.60;;;16.76;41.33;100268.03;5052336;28;20218;-57
2022/04/05 09:20:58;;;;;;;14.00;2.83;;;13.40;55.10;;;16.82;41.34;100277.75;5042414;28;20190;-57
2022/04/05 09:23:28;;;;;;;5.93;1.93;;;13.40;55.10;;;16.86;41.14;100270.94;5054735;28;20288;-59
2022/04/05 09:25:58;;;;;;;7.30;2.40;;;13.40;55.00;;;17.01;41.28;100278.50;5045810;28;20503;-58
2022/04/05 09:28:28;;;;;;;5.57;2.30;;;13.50;55.70;;;17.18;41.25;100267.00;5048730;28;20709;-59
2022/04/05 09:31:02;;;;;;;7.40;3.43;;;13.50;55.20;;;17.33;41.00;100261.22;5040593;28;20205;-57
2022/04/05 09:33:33;;;;;;;5.97;2.67;;;13.60;55.40;;;17.36;40.54;100266.88;5051603;28;20213;-60
2022/04/05 09:36:12;;;;;;;3.70;2.03;;;13.60;54.90;;;17.27;40.41;100262.13;5049696;28;20210;-58
2022/04/05 09:38:43;;;;;;;3.50;1.83;;;13.70;54.30;;;17.14;40.41;100252.50;5034958;28;20216;-59
2022/04/05 09:41:18;;;;;;;4.07;2.03;;;13.70;54.40;;;17.08;40.89;100266.75;5038019;28;20210;-60
2022/04/05 09:43:57;;;;;;;5.70;2.20;;;13.60;54.60;;;17.06;40.53;100266.16;5046494;28;20192;-57
2022/04/05 09:46:28;;;;;;;5.67;2.40;;;13.60;54.50;;;17.08;40.89;100258.75;5040393;28;20604;-59
2022/04/05 09:49:10;;;;;;;6.03;2.40;;;13.60;54.60;;;17.12;40.90;100264.41;5052665;28;20725;-60
2022/04/05 09:51:41;;;;;;;4.20;2.23;;;13.60;55.00;;;17.18;40.54;100258.19;5039207;28;20206;-58
2022/04/05 09:54:22;;;;;;;4.90;2.50;;;13.70;54.60;;;17.23;40.65;100253.81;5045442;28;20203;-58
2022/04/05 09:56:49;;;;;;;5.27;2.30;;;13.70;55.10;;;17.29;40.42;100255.53;5035678;28;20214;-59
2022/04/05 09:59:18;;;;;;;6.87;2.57;;;13.70;54.20;;;17.33;40.08;100256.69;5039046;28;20198;-59
2022/04/05 10:01:51;;;;;;;4.63;2.50;;;13.80;54.00;;;17.34;39.61;100262.84;5045911;28;20677;-59
2022/04/05 10:04:19;;;;;;;3.23;2.40;;;13.80;53.30;;;17.31;39.76;100258.78;5036409;28;20195;-57
2022/04/05 10:06:48;;;;;;;5.40;2.10;;;13.80;53.30;;;17.24;39.30;100263.41;5035291;28;20261;-58
2022/04/05 10:09:25;;;;;;;5.00;2.03;;;13.80;52.50;;;17.11;39.85;100263.63;5046769;28;20198;-61
2022/04/05 10:11:55;;;;;;;6.23;3.07;;;13.80;52.80;;;17.04;39.93;100262.94;5036063;28;20269;-60
2022/04/05 10:14:27;;;;;;;6.40;2.50;;;13.80;53.20;;;16.97;40.09;100258.75;5025154;28;20207;-59
2022/04/05 10:16:57;;;;;;;6.10;2.40;;;13.70;53.10;;;16.87;40.61;100260.09;5039522;28;20246;-58
2022/04/05 10:19:25;;;;;;;4.03;2.00;;;13.70;53.80;;;16.81;40.85;100271.63;5039909;28;20229;-58
2022/04/05 10:21:57;;;;;;;5.77;2.23;;;13.60;53.80;;;16.75;41.19;100269.06;5045039;28;20195;-58